»·PEaware :: SWA1417 KGEG-KBOI

SWA1417 :: KGEG-KBOI

FLIGHT INFORMATION

Flight Status: Arrived
Operator:
Southwest Airlines
More flights by this operator :: More flights under this callsign
Pilot: Justin Z. (25672)
Aircraft: BOEING 737-800
(B738)
More flights by this aircraft type
Origin: KGEG Spokane Intl
United States
Destination: KBOI Boise Air Terminal/Gowen
United States
More flights between these airports :: More routes between these airports
Route: GEG6 GEG SUMOQ BEWTE3
File this flight plan on PilotEdge
Remarks:
Altitude:
(Current/Filed)
37,000ft
Speed:
(Current/Filed)
450kts
Departed: 25-Mar-20 04:47 PM
Arrived: 25-Mar-20 05:38 PM
Distance/Time
Traveled:
249nm/0:51
Distance/Time
To Go:
Arrived

Flight Plot

Page will automatically refresh every two minutes.


Map Options




Map Legend


Flown Route
Filed Route
Departure Airport
Arrival Airport
Navaid (VOR, NDB)
Fix

Horizontal Profiles

Position Reports

Time Latitude Longitude Heading Altitude Ground
Speed
25-Mar-20 16:16 47.625831 -117.534406 232 2362ft 0kts
25-Mar-20 16:17 47.625831 -117.534406 232 2362ft 0kts
25-Mar-20 16:18 47.625831 -117.534406 232 2362ft 0kts
25-Mar-20 16:19 47.625831 -117.534406 231 2362ft 0kts
25-Mar-20 16:20 47.625831 -117.534406 231 2362ft 0kts
25-Mar-20 16:21 47.625831 -117.534406 231 2362ft 0kts
25-Mar-20 16:22 47.625831 -117.534406 231 2362ft 0kts
25-Mar-20 16:23 47.625831 -117.534406 231 2362ft 0kts
25-Mar-20 16:24 47.625831 -117.534406 231 2362ft 0kts
25-Mar-20 16:25 47.625831 -117.534406 231 2362ft 0kts
25-Mar-20 16:26 47.625831 -117.534406 231 2362ft 0kts
25-Mar-20 16:27 47.625831 -117.534406 231 2362ft 0kts
25-Mar-20 16:28 47.625831 -117.534406 231 2362ft 0kts
25-Mar-20 16:29 47.625831 -117.534406 231 2362ft 0kts
25-Mar-20 16:30 47.625831 -117.534406 231 2362ft 0kts
25-Mar-20 16:31 47.625831 -117.534406 231 2362ft 0kts
25-Mar-20 16:32 47.625831 -117.534406 231 2362ft 0kts
25-Mar-20 16:33 47.625831 -117.534406 231 2362ft 0kts
25-Mar-20 16:34 47.625831 -117.534406 231 2362ft 0kts
25-Mar-20 16:35 47.625831 -117.534406 231 2362ft 0kts
25-Mar-20 16:36 47.625831 -117.534406 231 2362ft 0kts
25-Mar-20 16:37 47.625831 -117.534406 231 2362ft 0kts
25-Mar-20 16:38 47.625831 -117.534406 231 2362ft 0kts
25-Mar-20 16:39 47.625832 -117.534405 232 2362ft 0kts
25-Mar-20 16:40 47.625964 -117.534182 192 2361ft 0kts
25-Mar-20 16:41 47.625963 -117.534173 173 2361ft 0kts
25-Mar-20 16:42 47.624997 -117.532399 104 2360ft 20kts
25-Mar-20 16:43 47.631192 -117.522362 44 2339ft 39kts
25-Mar-20 16:44 47.631919 -117.519480 136 2331ft 0kts
25-Mar-20 16:45 47.631078 -117.518485 185 2330ft 3kts
25-Mar-20 16:46 47.616564 -117.540292 224 2574ft 183kts
25-Mar-20 16:47 47.584790 -117.605161 230 3949ft 255kts
25-Mar-20 16:48 47.534352 -117.680951 222 7163ft 266kts
25-Mar-20 16:49 47.461990 -117.670095 160 9897ft 294kts
25-Mar-20 16:50 47.375605 -117.631832 165 11465ft 350kts
25-Mar-20 16:51 47.279501 -117.595396 165 12729ft 359kts
25-Mar-20 16:52 47.181294 -117.556422 164 15349ft 373kts
25-Mar-20 16:53 47.079571 -117.515461 165 17827ft 387kts
25-Mar-20 16:54 46.975183 -117.473484 166 20118ft 398kts
25-Mar-20 16:55 46.872389 -117.432220 167 22296ft 404kts
25-Mar-20 16:56 46.760553 -117.387430 167 24143ft 416kts
25-Mar-20 16:57 46.652901 -117.344396 168 25743ft 426kts
25-Mar-20 16:58 46.536278 -117.297852 168 27264ft 436kts
25-Mar-20 16:59 46.424785 -117.253461 168 28535ft 446kts
25-Mar-20 17:00 46.305635 -117.206121 168 29777ft 454kts
25-Mar-20 17:01 46.195782 -117.162553 168 31012ft 456kts
25-Mar-20 17:02 46.065247 -117.110896 168 32590ft 453kts
25-Mar-20 17:03 45.944900 -117.063382 168 34018ft 449kts
25-Mar-20 17:04 45.833075 -117.019332 169 35255ft 445kts
25-Mar-20 17:05 45.716672 -116.973576 169 36456ft 442kts
25-Mar-20 17:06 45.596568 -116.926498 169 36998ft 445kts
25-Mar-20 17:07 45.479425 -116.880612 169 36972ft 438kts
25-Mar-20 17:08 45.364110 -116.835564 169 36901ft 435kts
25-Mar-20 17:09 45.248334 -116.790400 169 34071ft 431kts
25-Mar-20 17:10 45.132332 -116.745337 169 31124ft 444kts
25-Mar-20 17:11 45.015511 -116.699928 170 27693ft 440kts
25-Mar-20 17:12 44.899055 -116.658815 174 24795ft 424kts
25-Mar-20 17:13 44.792526 -116.631100 175 23927ft 384kts
25-Mar-20 17:14 44.687767 -116.604186 175 23903ft 383kts
25-Mar-20 17:15 44.583290 -116.577303 175 23515ft 378kts
25-Mar-20 17:16 44.483634 -116.551749 174 21586ft 365kts
25-Mar-20 17:17 44.385629 -116.526843 174 19566ft 358kts
25-Mar-20 17:18 44.289526 -116.502436 173 17558ft 350kts
25-Mar-20 17:19 44.195045 -116.478496 173 15611ft 343kts
25-Mar-20 17:20 44.102333 -116.455123 172 13629ft 337kts
25-Mar-20 17:21 44.017817 -116.433771 173 12702ft 285kts
25-Mar-20 17:22 43.940135 -116.413451 172 11420ft 283kts
25-Mar-20 17:23 43.866681 -116.394140 172 10645ft 264kts
25-Mar-20 17:24 43.797110 -116.376185 172 9478ft 246kts
25-Mar-20 17:25 43.732636 -116.359541 173 8363ft 223kts
25-Mar-20 17:26 43.676492 -116.328719 132 8033ft 246kts
25-Mar-20 17:27 43.645654 -116.243582 117 8008ft 249kts
25-Mar-20 17:28 43.615875 -116.158488 117 7576ft 236kts
25-Mar-20 17:29 43.585888 -116.078393 121 7073ft 235kts
25-Mar-20 17:30 43.558829 -115.997228 116 6997ft 219kts
25-Mar-20 17:31 43.518191 -115.949902 178 6803ft 198kts
25-Mar-20 17:32 43.490782 -115.992045 283 6162ft 172kts
25-Mar-20 17:33 43.506091 -116.049574 292 5312ft 148kts
25-Mar-20 17:34 43.523145 -116.099452 293 4529ft 142kts
25-Mar-20 17:35 43.539707 -116.147850 294 3717ft 136kts
25-Mar-20 17:36 43.555595 -116.193809 291 3099ft 127kts
25-Mar-20 17:37 43.565733 -116.223647 311 2852ft 32kts
25-Mar-20 17:38 43.567749 -116.223303 326 2852ft 0kts
25-Mar-20 17:39 43.567749 -116.223303 326 2852ft 0kts
25-Mar-20 17:41 43.567749 -116.223303 326 2852ft 0kts
25-Mar-20 17:42 43.567749 -116.223303 326 2852ft 0kts

Navigation Log

Ident Type
Flight plan parsing failed, navigation log unavailable